sensor_id;sensor_type;location;lat;lon;timestamp;P1;durP1;ratioP1;P2;durP2;ratioP2
19402;SDS011;9837;48.888;8.998;2022-12-24T06:01:21;15.23;;;3.17;;
19402;SDS011;9837;48.888;8.998;2022-12-24T06:03:48;7.00;;;2.40;;
19402;SDS011;9837;48.888;8.998;2022-12-24T06:06:15;17.53;;;3.03;;
19402;SDS011;9837;48.888;8.998;2022-12-24T06:08:45;11.53;;;2.77;;
19402;SDS011;9837;48.888;8.998;2022-12-24T06:11:13;7.57;;;2.43;;
19402;SDS011;9837;48.888;8.998;2022-12-24T06:13:40;13.23;;;3.23;;
19402;SDS011;9837;48.888;8.998;2022-12-24T06:16:07;12.70;;;3.37;;
19402;SDS011;9837;48.888;8.998;2022-12-24T06:18:34;10.73;;;3.03;;
19402;SDS011;9837;48.888;8.998;2022-12-24T06:21:00;10.20;;;2.77;;
19402;SDS011;9837;48.888;8.998;2022-12-24T06:23:30;10.03;;;2.43;;
19402;SDS011;9837;48.888;8.998;2022-12-24T06:25:57;14.87;;;3.67;;
19402;SDS011;9837;48.888;8.998;2022-12-24T06:28:25;10.27;;;2.70;;
19402;SDS011;9837;48.888;8.998;2022-12-24T06:30:51;15.17;;;3.03;;
19402;SDS011;9837;48.888;8.998;2022-12-24T06:33:17;13.47;;;3.07;;
19402;SDS011;9837;48.888;8.998;2022-12-24T06:35:43;17.87;;;3.20;;
19402;SDS011;9837;48.888;8.998;2022-12-24T06:38:10;10.53;;;2.77;;
19402;SDS011;9837;48.888;8.998;2022-12-24T06:40:39;14.17;;;3.27;;
19402;SDS011;9837;48.888;8.998;2022-12-24T06:43:06;11.57;;;3.77;;
19402;SDS011;9837;48.888;8.998;2022-12-24T06:45:32;10.27;;;2.70;;
19402;SDS011;9837;48.888;8.998;2022-12-24T06:47:58;16.13;;;3.83;;
19402;SDS011;9837;48.888;8.998;2022-12-24T06:50:25;10.43;;;2.60;;
19402;SDS011;9837;48.888;8.998;2022-12-24T06:52:51;8.77;;;2.33;;
19402;SDS011;9837;48.888;8.998;2022-12-24T06:55:17;11.50;;;2.70;;
19402;SDS011;9837;48.888;8.998;2022-12-24T06:57:43;15.03;;;2.93;;
19402;SDS011;9837;48.888;8.998;2022-12-24T07:00:09;13.23;;;2.90;;
19402;SDS011;9837;48.888;8.998;2022-12-24T07:02:39;11.23;;;3.53;;
19402;SDS011;9837;48.888;8.998;2022-12-24T07:05:05;15.73;;;2.90;;
19402;SDS011;9837;48.888;8.998;2022-12-24T07:07:35;12.40;;;3.67;;
19402;SDS011;9837;48.888;8.998;2022-12-24T07:10:02;11.13;;;2.70;;
19402;SDS011;9837;48.888;8.998;2022-12-24T07:12:28;9.07;;;2.60;;
19402;SDS011;9837;48.888;8.998;2022-12-24T07:14:54;10.10;;;2.50;;
19402;SDS011;9837;48.888;8.998;2022-12-24T07:17:20;13.17;;;3.80;;
19402;SDS011;9837;48.888;8.998;2022-12-24T07:19:46;11.77;;;2.67;;
19402;SDS011;9837;48.888;8.998;2022-12-24T07:22:12;11.77;;;2.53;;
19402;SDS011;9837;48.888;8.998;2022-12-24T07:24:38;16.03;;;3.27;;
19402;SDS011;9837;48.888;8.998;2022-12-24T07:27:04;5.70;;;2.10;;
19402;SDS011;9837;48.888;8.998;2022-12-24T07:29:30;13.53;;;2.73;;
19402;SDS011;9837;48.888;8.998;2022-12-24T07:31:56;21.43;;;3.00;;
19402;SDS011;9837;48.888;8.998;2022-12-24T07:34:22;14.47;;;2.70;;
19402;SDS011;9837;48.888;8.998;2022-12-24T07:36:48;16.07;;;3.07;;
19402;SDS011;9837;48.888;8.998;2022-12-24T07:39:15;10.57;;;2.70;;
19402;SDS011;9837;48.888;8.998;2022-12-24T07:41:41;11.60;;;2.50;;
19402;SDS011;9837;48.888;8.998;2022-12-24T07:44:10;15.80;;;2.83;;
19402;SDS011;9837;48.888;8.998;2022-12-24T07:46:36;10.57;;;3.07;;
19402;SDS011;9837;48.888;8.998;2022-12-24T07:49:02;13.33;;;3.07;;
19402;SDS011;9837;48.888;8.998;2022-12-24T07:51:28;12.23;;;3.50;;
19402;SDS011;9837;48.888;8.998;2022-12-24T07:53:54;13.77;;;3.27;;
19402;SDS011;9837;48.888;8.998;2022-12-24T07:56:20;8.67;;;2.67;;
19402;SDS011;9837;48.888;8.998;2022-12-24T07:58:46;11.67;;;3.10;;
19402;SDS011;9837;48.888;8.998;2022-12-24T08:01:12;15.33;;;3.67;;
19402;SDS011;9837;48.888;8.998;2022-12-24T08:03:38;10.47;;;3.17;;
19402;SDS011;9837;48.888;8.998;2022-12-24T08:06:04;18.10;;;3.47;;
19402;SDS011;9837;48.888;8.998;2022-12-24T08:08:30;14.53;;;2.67;;
19402;SDS011;9837;48.888;8.998;2022-12-24T08:11:00;14.00;;;3.90;;
19402;SDS011;9837;48.888;8.998;2022-12-24T08:13:27;6.70;;;2.13;;
19402;SDS011;9837;48.888;8.998;2022-12-24T08:15:53;13.17;;;3.73;;
19402;SDS011;9837;48.888;8.998;2022-12-24T08:18:19;15.33;;;2.77;;
19402;SDS011;9837;48.888;8.998;2022-12-24T08:20:45;7.80;;;2.63;;
19402;SDS011;9837;48.888;8.998;2022-12-24T08:23:11;14.03;;;3.17;;
19402;SDS011;9837;48.888;8.998;2022-12-24T08:25:41;16.27;;;3.20;;
19402;SDS011;9837;48.888;8.998;2022-12-24T08:28:56;10.90;;;2.90;;
19402;SDS011;9837;48.888;8.998;2022-12-24T08:32:17;9.07;;;2.73;;
19402;SDS011;9837;48.888;8.998;2022-12-24T08:35:40;15.60;;;3.03;;
19402;SDS011;9837;48.888;8.998;2022-12-24T08:38:32;16.70;;;3.30;;
19402;SDS011;9837;48.888;8.998;2022-12-24T08:41:11;13.93;;;3.07;;
19402;SDS011;9837;48.888;8.998;2022-12-24T08:43:57;14.27;;;2.77;;
19402;SDS011;9837;48.888;8.998;2022-12-24T08:46:55;12.00;;;2.87;;
19402;SDS011;9837;48.888;8.998;2022-12-24T08:52:52;10.30;;;3.33;;
19402;SDS011;9837;48.888;8.998;2022-12-24T08:55:19;21.17;;;3.40;;
19402;SDS011;9837;48.888;8.998;2022-12-24T09:01:16;21.70;;;5.73;;
19402;SDS011;9837;48.888;8.998;2022-12-24T09:04:19;16.50;;;3.80;;
19402;SDS011;9837;48.888;8.998;2022-12-24T09:06:45;16.80;;;3.90;;
19402;SDS011;9837;48.888;8.998;2022-12-24T09:09:22;10.23;;;2.93;;
19402;SDS011;9837;48.888;8.998;2022-12-24T09:11:48;21.40;;;3.37;;
19402;SDS011;9837;48.888;8.998;2022-12-24T09:14:14;10.30;;;2.83;;
19402;SDS011;9837;48.888;8.998;2022-12-24T09:16:43;10.53;;;2.57;;
19402;SDS011;9837;48.888;8.998;2022-12-24T09:19:20;15.80;;;3.93;;
19402;SDS011;9837;48.888;8.998;2022-12-24T09:22:20;11.57;;;3.10;;
19402;SDS011;9837;48.888;8.998;2022-12-24T09:24:46;9.70;;;3.20;;
19402;SDS011;9837;48.888;8.998;2022-12-24T09:27:24;6.50;;;2.73;;
19402;SDS011;9837;48.888;8.998;2022-12-24T09:29:56;15.83;;;3.50;;
19402;SDS011;9837;48.888;8.998;2022-12-24T09:32:22;12.63;;;3.40;;
19402;SDS011;9837;48.888;8.998;2022-12-24T09:34:49;11.43;;;2.97;;
19402;SDS011;9837;48.888;8.998;2022-12-24T09:37:15;9.90;;;2.93;;
19402;SDS011;9837;48.888;8.998;2022-12-24T09:39:41;14.37;;;2.77;;
19402;SDS011;9837;48.888;8.998;2022-12-24T09:42:27;16.53;;;3.00;;
19402;SDS011;9837;48.888;8.998;2022-12-24T09:48:08;12.30;;;3.20;;
19402;SDS011;9837;48.888;8.998;2022-12-24T09:53:28;9.30;;;2.90;;
19402;SDS011;9837;48.888;8.998;2022-12-24T09:56:18;12.60;;;2.80;;
19402;SDS011;9837;48.888;8.998;2022-12-24T09:58:53;14.63;;;3.47;;
19402;SDS011;9837;48.888;8.998;2022-12-24T10:01:28;8.10;;;2.90;;
19402;SDS011;9837;48.888;8.998;2022-12-24T10:04:20;13.43;;;3.47;;
19402;SDS011;9837;48.888;8.998;2022-12-24T10:06:54;7.10;;;2.70;;
19402;SDS011;9837;48.888;8.998;2022-12-24T10:12:21;11.67;;;2.97;;
19402;SDS011;9837;48.888;8.998;2022-12-24T10:25:57;14.50;;;3.07;;
19402;SDS011;9837;48.888;8.998;2022-12-24T10:31:07;15.27;;;2.97;;
19402;SDS011;9837;48.888;8.998;2022-12-24T10:33:44;10.20;;;2.63;;
19402;SDS011;9837;48.888;8.998;2022-12-24T10:36:18;16.67;;;2.83;;
19402;SDS011;9837;48.888;8.998;2022-12-24T10:38:49;10.97;;;3.07;;
19402;SDS011;9837;48.888;8.998;2022-12-24T10:41:15;11.67;;;2.73;;
19402;SDS011;9837;48.888;8.998;2022-12-24T10:43:45;9.87;;;3.27;;
19402;SDS011;9837;48.888;8.998;2022-12-24T10:49:11;13.80;;;4.43;;
19402;SDS011;9837;48.888;8.998;2022-12-24T10:52:04;12.50;;;3.50;;
19402;SDS011;9837;48.888;8.998;2022-12-24T10:58:10;12.80;;;3.03;;
19402;SDS011;9837;48.888;8.998;2022-12-24T11:01:16;12.07;;;3.57;;
19402;SDS011;9837;48.888;8.998;2022-12-24T11:06:50;15.83;;;4.30;;
19402;SDS011;9837;48.888;8.998;2022-12-24T11:09:43;8.13;;;3.13;;
19402;SDS011;9837;48.888;8.998;2022-12-24T11:13:25;13.23;;;3.60;;
19402;SDS011;9837;48.888;8.998;2022-12-24T11:16:50;13.90;;;3.50;;
19402;SDS011;9837;48.888;8.998;2022-12-24T11:19:40;15.60;;;3.03;;
19402;SDS011;9837;48.888;8.998;2022-12-24T11:22:30;10.33;;;3.00;;
19402;SDS011;9837;48.888;8.998;2022-12-24T11:29:23;15.53;;;3.20;;
19402;SDS011;9837;48.888;8.998;2022-12-24T11:35:07;19.17;;;3.83;;
19402;SDS011;9837;48.888;8.998;2022-12-24T11:38:10;13.10;;;3.90;;
19402;SDS011;9837;48.888;8.998;2022-12-24T11:41:08;17.53;;;3.93;;
19402;SDS011;9837;48.888;8.998;2022-12-24T11:44:33;11.03;;;3.03;;
19402;SDS011;9837;48.888;8.998;2022-12-24T11:47:00;14.00;;;4.40;;
19402;SDS011;9837;48.888;8.998;2022-12-24T11:49:27;19.27;;;5.00;;
19402;SDS011;9837;48.888;8.998;2022-12-24T11:52:21;14.30;;;4.33;;
19402;SDS011;9837;48.888;8.998;2022-12-24T11:58:42;14.63;;;4.10;;
19402;SDS011;9837;48.888;8.998;2022-12-24T12:02:02;11.93;;;4.07;;
19402;SDS011;9837;48.888;8.998;2022-12-24T12:04:55;13.37;;;3.80;;
19402;SDS011;9837;48.888;8.998;2022-12-24T12:08:14;16.17;;;3.83;;
19402;SDS011;9837;48.888;8.998;2022-12-24T12:11:17;30.00;;;6.40;;
19402;SDS011;9837;48.888;8.998;2022-12-24T12:14:16;17.53;;;3.60;;
19402;SDS011;9837;48.888;8.998;2022-12-24T12:19:48;23.07;;;4.63;;
19402;SDS011;9837;48.888;8.998;2022-12-24T12:22:29;20.23;;;4.43;;
19402;SDS011;9837;48.888;8.998;2022-12-24T12:28:22;12.87;;;3.90;;
19402;SDS011;9837;48.888;8.998;2022-12-24T12:31:12;13.23;;;4.10;;
19402;SDS011;9837;48.888;8.998;2022-12-24T12:39:55;15.80;;;4.10;;
19402;SDS011;9837;48.888;8.998;2022-12-24T12:45:37;16.33;;;3.23;;
19402;SDS011;9837;48.888;8.998;2022-12-24T12:57:12;11.30;;;3.10;;
19402;SDS011;9837;48.888;8.998;2022-12-24T13:00:36;8.53;;;3.30;;
19402;SDS011;9837;48.888;8.998;2022-12-24T13:37:33;11.00;;;3.10;;
19402;SDS011;9837;48.888;8.998;2022-12-24T13:40:01;15.13;;;3.77;;
19402;SDS011;9837;48.888;8.998;2022-12-24T13:42:46;15.57;;;4.03;;
19402;SDS011;9837;48.888;8.998;2022-12-24T13:50:39;26.97;;;5.77;;
19402;SDS011;9837;48.888;8.998;2022-12-24T13:55:54;16.13;;;4.80;;
19402;SDS011;9837;48.888;8.998;2022-12-24T13:58:29;14.03;;;4.73;;
19402;SDS011;9837;48.888;8.998;2022-12-24T14:01:03;15.70;;;4.43;;
19402;SDS011;9837;48.888;8.998;2022-12-24T14:06:05;21.27;;;6.43;;
19402;SDS011;9837;48.888;8.998;2022-12-24T14:08:41;13.30;;;6.17;;
19402;SDS011;9837;48.888;8.998;2022-12-24T14:11:13;17.77;;;6.20;;
19402;SDS011;9837;48.888;8.998;2022-12-24T14:16:13;20.63;;;5.33;;
19402;SDS011;9837;48.888;8.998;2022-12-24T14:19:00;13.23;;;5.03;;
19402;SDS011;9837;48.888;8.998;2022-12-24T14:24:30;19.90;;;4.67;;
19402;SDS011;9837;48.888;8.998;2022-12-24T14:27:04;19.87;;;4.70;;
19402;SDS011;9837;48.888;8.998;2022-12-24T14:29:41;18.87;;;4.30;;
19402;SDS011;9837;48.888;8.998;2022-12-24T14:32:32;21.77;;;4.27;;
19402;SDS011;9837;48.888;8.998;2022-12-24T14:37:38;10.03;;;4.67;;
19402;SDS011;9837;48.888;8.998;2022-12-24T14:40:27;13.10;;;4.87;;
19402;SDS011;9837;48.888;8.998;2022-12-24T14:49:21;15.73;;;6.33;;
19402;SDS011;9837;48.888;8.998;2022-12-24T14:52:08;13.07;;;5.40;;
19402;SDS011;9837;48.888;8.998;2022-12-24T14:54:48;14.47;;;6.00;;
19402;SDS011;9837;48.888;8.998;2022-12-24T14:57:20;15.60;;;5.33;;
19402;SDS011;9837;48.888;8.998;2022-12-24T14:59:58;16.00;;;5.73;;
19402;SDS011;9837;48.888;8.998;2022-12-24T15:02:56;19.57;;;6.57;;
19402;SDS011;9837;48.888;8.998;2022-12-24T15:05:37;13.50;;;5.40;;
19402;SDS011;9837;48.888;8.998;2022-12-24T15:08:07;16.07;;;5.77;;
19402;SDS011;9837;48.888;8.998;2022-12-24T15:10:39;17.47;;;5.80;;
19402;SDS011;9837;48.888;8.998;2022-12-24T15:16:24;19.30;;;5.70;;
19402;SDS011;9837;48.888;8.998;2022-12-24T15:21:50;14.90;;;5.43;;
19402;SDS011;9837;48.888;8.998;2022-12-24T15:24:31;14.93;;;4.83;;
19402;SDS011;9837;48.888;8.998;2022-12-24T15:27:17;24.00;;;9.03;;
19402;SDS011;9837;48.888;8.998;2022-12-24T15:29:55;21.13;;;7.20;;
19402;SDS011;9837;48.888;8.998;2022-12-24T15:32:36;19.53;;;7.67;;
19402;SDS011;9837;48.888;8.998;2022-12-24T15:38:33;17.20;;;6.00;;
19402;SDS011;9837;48.888;8.998;2022-12-24T15:41:42;28.03;;;7.00;;
19402;SDS011;9837;48.888;8.998;2022-12-24T15:51:34;32.70;;;11.97;;
19402;SDS011;9837;48.888;8.998;2022-12-24T15:54:06;32.83;;;12.10;;
19402;SDS011;9837;48.888;8.998;2022-12-24T15:56:46;30.03;;;10.17;;
19402;SDS011;9837;48.888;8.998;2022-12-24T16:03:10;27.30;;;8.87;;
19402;SDS011;9837;48.888;8.998;2022-12-24T16:06:10;23.40;;;7.67;;
19402;SDS011;9837;48.888;8.998;2022-12-24T16:16:04;21.37;;;6.33;;
19402;SDS011;9837;48.888;8.998;2022-12-24T16:18:41;25.97;;;7.47;;
19402;SDS011;9837;48.888;8.998;2022-12-24T16:21:57;24.90;;;6.23;;
19402;SDS011;9837;48.888;8.998;2022-12-24T16:24:53;21.10;;;5.87;;
19402;SDS011;9837;48.888;8.998;2022-12-24T17:13:24;18.00;;;6.60;;
19402;SDS011;9837;48.888;8.998;2022-12-24T17:43:46;22.80;;;8.17;;
19402;SDS011;9837;48.888;8.998;2022-12-24T20:45:12;7.50;;;3.47;;
19402;SDS011;9837;48.888;8.998;2022-12-24T20:48:23;9.37;;;4.23;;
